createdAt,value
2022-08-25T00:03:03.369Z,85.72
2022-08-25T00:08:40.088Z,86.27
2022-08-25T00:11:24.642Z,86.66
2022-08-25T00:17:00.191Z,87.02
2022-08-25T00:22:35.545Z,87.15
2022-08-25T00:28:11.155Z,87.60
2022-08-25T00:30:55.908Z,87.85
2022-08-25T00:36:31.191Z,88.12
2022-08-25T00:42:07.464Z,88.22
2022-08-25T00:47:50.784Z,88.41
2022-08-25T00:50:35.355Z,88.48
2022-08-25T00:59:01.421Z,88.33
2022-08-25T01:01:46.024Z,88.30
2022-08-25T01:07:21.409Z,88.54
2022-08-25T01:12:56.690Z,88.68
2022-08-25T01:18:32.278Z,88.66
2022-08-25T01:26:58.555Z,88.87
2022-08-25T01:32:34.188Z,89.11
2022-08-25T01:38:09.774Z,89.37
2022-08-25T01:40:54.591Z,89.31
2022-08-25T01:46:29.977Z,89.19
2022-08-25T01:52:05.377Z,89.48
2022-08-25T01:57:40.672Z,89.88
2022-08-25T02:03:19.066Z,89.99
2022-08-25T02:08:54.933Z,90.35
2022-08-25T02:11:39.412Z,90.48
2022-08-25T02:17:14.680Z,90.42
2022-08-25T02:22:56.501Z,90.47
2022-08-25T02:28:34.418Z,90.63
2022-08-25T02:31:19.024Z,90.81
2022-08-25T02:37:03.311Z,90.73
2022-08-25T02:42:38.907Z,90.74
2022-08-25T02:48:17.958Z,90.78
2022-08-25T02:51:02.545Z,90.75
2022-08-25T02:56:37.819Z,90.83
2022-08-25T03:02:13.355Z,90.92
2022-08-25T03:07:49.043Z,90.96
2022-08-25T03:10:33.608Z,91.05
2022-08-25T03:16:10.857Z,91.21
2022-08-25T03:21:47.528Z,91.34
2022-08-25T03:27:23.663Z,91.37
2022-08-25T03:32:59.347Z,91.34
2022-08-25T03:38:34.662Z,91.59
2022-08-25T03:41:19.148Z,91.67
2022-08-25T03:44:04.749Z,91.64
2022-08-25T03:49:40.307Z,91.50
2022-08-25T03:52:25.007Z,91.62
2022-08-25T03:58:00.315Z,91.75
2022-08-25T04:00:45.150Z,91.76
2022-08-25T04:06:20.508Z,91.79
2022-08-25T04:11:56.768Z,91.74
2022-08-25T04:17:32.288Z,91.81
2022-08-25T04:23:07.586Z,91.71
2022-08-25T04:28:43.556Z,91.74
2022-08-25T04:31:28.184Z,91.73
2022-08-25T04:39:54.423Z,91.72
2022-08-25T04:42:38.954Z,91.67
2022-08-25T04:48:14.259Z,91.67
2022-08-25T04:50:58.760Z,91.59
2022-08-25T04:56:34.082Z,91.53
2022-08-25T05:02:09.366Z,91.38
2022-08-25T05:07:44.636Z,91.22
2022-08-25T05:13:19.902Z,91.03
2022-08-25T05:18:55.558Z,90.99
2022-08-25T05:21:40.042Z,90.84
2022-08-25T05:27:15.381Z,90.61
2022-08-25T05:32:50.686Z,90.50
2022-08-25T05:41:17.718Z,90.19
2022-08-25T05:46:53.065Z,90.10
2022-08-25T05:55:19.371Z,89.97
2022-08-25T06:00:59.375Z,89.69
2022-08-25T06:03:56.640Z,89.51
2022-08-25T06:18:04.219Z,88.80
2022-08-25T06:20:48.879Z,88.50
2022-08-25T06:26:24.446Z,88.19
2022-08-25T06:31:59.841Z,87.98
2022-08-25T06:37:36.143Z,87.81
2022-08-25T06:43:13.587Z,87.39
2022-08-25T06:48:53.546Z,87.01
2022-08-25T06:51:38.035Z,86.74
2022-08-25T06:57:13.394Z,86.16
2022-08-25T07:02:48.876Z,85.63
2022-08-25T07:08:29.130Z,85.24
2022-08-25T07:22:40.084Z,83.85
2022-08-25T07:31:11.084Z,83.26
2022-08-25T07:36:53.102Z,82.85
2022-08-25T07:42:32.813Z,81.73
2022-08-25T07:51:01.733Z,80.10
2022-08-25T07:59:39.666Z,79.72
2022-08-25T08:02:27.982Z,79.65
2022-08-25T08:08:07.636Z,78.97
2022-08-25T08:11:04.089Z,78.79
2022-08-25T08:16:37.996Z,78.27
2022-08-25T08:27:57.753Z,77.34
2022-08-25T08:30:53.442Z,77.72
2022-08-25T08:36:26.814Z,76.51
2022-08-25T08:42:11.990Z,76.80
2022-08-25T08:47:46.870Z,76.89
2022-08-25T08:53:23.902Z,76.71
2022-08-25T08:59:05.111Z,75.77
2022-08-25T09:01:54.258Z,75.37
2022-08-25T09:10:20.880Z,73.78
2022-08-25T09:13:11.901Z,74.03
2022-08-25T09:18:51.368Z,72.64
2022-08-25T09:21:37.086Z,72.15
2022-08-25T09:27:12.623Z,72.06
2022-08-25T09:32:52.410Z,71.56
2022-08-25T09:35:38.244Z,70.88
2022-08-25T09:41:13.540Z,71.50
2022-08-25T09:46:48.893Z,72.21
2022-08-25T09:52:25.240Z,71.72
2022-08-25T09:58:00.872Z,71.61
2022-08-25T10:00:46.382Z,71.74
2022-08-25T10:06:23.044Z,71.32
2022-08-25T10:11:58.440Z,69.60
2022-08-25T10:17:33.796Z,67.94
2022-08-25T10:23:11.210Z,67.61
2022-08-25T10:28:46.962Z,66.56
2022-08-25T10:31:34.823Z,66.40
2022-08-25T10:37:17.907Z,64.33
2022-08-25T10:43:02.432Z,63.99
2022-08-25T10:48:38.596Z,64.54
2022-08-25T10:51:25.551Z,64.69
2022-08-25T10:57:01.970Z,64.47
2022-08-25T11:02:37.299Z,64.86
2022-08-25T11:05:24.383Z,64.43
2022-08-25T11:11:00.643Z,64.08
2022-08-25T11:16:37.380Z,65.08
2022-08-25T11:22:15.376Z,63.92
2022-08-25T11:27:59.405Z,63.23
2022-08-25T11:30:44.636Z,63.19
2022-08-25T11:33:40.069Z,63.22
2022-08-25T11:39:17.507Z,62.61
2022-08-25T11:42:02.742Z,62.74
2022-08-25T11:47:40.032Z,62.65
2022-08-25T11:53:15.440Z,62.62
2022-08-25T11:58:50.778Z,62.59
2022-08-25T12:01:35.272Z,63.22
2022-08-25T12:07:12.509Z,62.97
2022-08-25T12:12:49.604Z,62.47
2022-08-25T12:18:29.813Z,62.03
2022-08-25T12:21:18.446Z,61.64
2022-08-25T12:30:05.615Z,61.46
2022-08-25T12:38:32.624Z,59.84
2022-08-25T12:41:26.327Z,59.13
2022-08-25T12:47:05.629Z,57.63
2022-08-25T12:52:44.198Z,56.52
2022-08-25T12:58:22.470Z,53.78
2022-08-25T13:01:17.575Z,44.79
2022-08-25T13:07:01.485Z,42.22
2022-08-25T13:12:38.303Z,40.33
2022-08-25T13:21:04.366Z,36.88
2022-08-25T13:26:48.013Z,35.69
2022-08-25T13:29:36.906Z,35.56
2022-08-25T13:35:20.095Z,34.82
2022-08-25T13:40:55.784Z,33.67
2022-08-25T13:46:31.193Z,32.11
2022-08-25T13:52:06.593Z,30.06
2022-08-25T13:57:42.501Z,29.23
2022-08-25T14:03:18.498Z,28.08
2022-08-25T14:09:02.631Z,27.77
2022-08-25T14:11:47.104Z,26.99
2022-08-25T14:17:39.354Z,27.17
2022-08-25T14:25:58.185Z,24.27
2022-08-25T14:34:25.229Z,23.88
2022-08-25T14:40:04.094Z,23.22
2022-08-25T14:45:39.451Z,23.10
2022-08-25T14:51:15.555Z,21.78
2022-08-25T14:56:51.030Z,20.76
2022-08-25T15:02:30.534Z,21.42
2022-08-25T15:05:15.172Z,21.60
2022-08-25T15:10:50.524Z,21.25
2022-08-25T15:16:33.884Z,22.23
2022-08-25T15:22:11.692Z,22.70
2022-08-25T15:24:56.356Z,24.42
2022-08-25T15:30:32.616Z,24.29
2022-08-25T15:41:49.708Z,20.61
2022-08-25T15:44:36.421Z,20.00
2022-08-25T15:50:13.372Z,21.82
2022-08-25T15:55:49.384Z,23.25
2022-08-25T16:01:33.657Z,26.22
2022-08-25T16:04:18.847Z,25.55
2022-08-25T16:09:55.276Z,30.85
2022-08-25T16:15:31.230Z,35.90
2022-08-25T16:21:12.410Z,37.53
2022-08-25T16:26:51.688Z,39.30
2022-08-25T16:32:33.854Z,40.33
2022-08-25T16:38:11.497Z,41.76
2022-08-25T16:43:47.604Z,42.54
2022-08-25T16:46:32.458Z,42.91
2022-08-25T16:52:07.796Z,44.07
2022-08-25T16:54:54.351Z,44.40
2022-08-25T17:00:29.676Z,45.12
2022-08-25T17:06:05.066Z,45.62
2022-08-25T17:14:31.239Z,46.44
2022-08-25T17:20:06.516Z,47.54
2022-08-25T17:28:33.694Z,48.39
2022-08-25T17:37:01.369Z,48.87
2022-08-25T17:39:50.672Z,49.15
2022-08-25T17:45:34.839Z,49.63
2022-08-25T17:51:10.505Z,50.59
2022-08-25T17:56:45.985Z,51.57
2022-08-25T18:02:21.307Z,52.39
2022-08-25T18:05:06.388Z,52.59
2022-08-25T18:10:41.580Z,53.06
2022-08-25T18:16:16.894Z,53.64
2022-08-25T18:21:52.901Z,54.42
2022-08-25T18:24:38.895Z,54.89
2022-08-25T18:30:14.969Z,55.08
2022-08-25T18:35:50.303Z,56.04
2022-08-25T18:41:26.505Z,56.66
2022-08-25T18:44:11.174Z,56.98
2022-08-25T18:49:46.531Z,57.33
2022-08-25T18:55:21.792Z,57.71
2022-08-25T19:00:57.032Z,58.17
2022-08-25T19:06:32.471Z,58.91
2022-08-25T19:12:11.857Z,59.54
2022-08-25T19:17:52.014Z,60.36
2022-08-25T19:23:27.266Z,60.97
2022-08-25T19:26:16.962Z,61.23
2022-08-25T19:31:56.489Z,61.54
2022-08-25T19:34:45.810Z,62.04
2022-08-25T19:40:30.253Z,63.26
2022-08-25T19:46:05.694Z,64.55
2022-08-25T19:51:40.986Z,65.43
2022-08-25T19:54:28.866Z,65.96
2022-08-25T20:05:45.784Z,68.27
2022-08-25T20:11:21.124Z,70.55
2022-08-25T20:16:56.434Z,71.40
2022-08-25T20:22:31.752Z,72.23
2022-08-25T20:25:17.589Z,72.75
2022-08-25T20:30:53.158Z,73.44
2022-08-25T20:36:28.638Z,74.57
2022-08-25T20:42:05.998Z,74.92
2022-08-25T20:47:43.564Z,74.72
2022-08-25T20:53:19.494Z,75.14
2022-08-25T20:56:12.977Z,75.24
2022-08-25T21:04:39.615Z,75.94
2022-08-25T21:07:33.097Z,76.41
2022-08-25T21:13:11.138Z,77.08
2022-08-25T21:15:55.613Z,77.42
2022-08-25T21:18:41.089Z,77.92
2022-08-25T21:24:25.694Z,78.68
2022-08-25T21:27:10.230Z,79.00
2022-08-25T21:32:53.202Z,79.67
2022-08-25T21:35:39.862Z,79.81
2022-08-25T21:44:06.076Z,80.63
2022-08-25T21:46:54.354Z,81.04
2022-08-25T21:52:29.947Z,81.16
2022-08-25T21:58:05.680Z,81.32
2022-08-25T22:03:40.951Z,81.49
2022-08-25T22:06:25.464Z,81.42
2022-08-25T22:12:00.832Z,82.02
2022-08-25T22:17:36.117Z,82.27
2022-08-25T22:23:20.103Z,82.30
2022-08-25T22:26:04.918Z,82.05
2022-08-25T22:31:40.170Z,82.08
2022-08-25T22:37:16.660Z,82.71
2022-08-25T22:42:52.043Z,83.13
2022-08-25T22:45:38.529Z,83.54
2022-08-25T22:51:13.918Z,83.53
2022-08-25T22:56:49.261Z,83.42
2022-08-25T23:02:24.667Z,83.69
2022-08-25T23:08:02.000Z,83.69
2022-08-25T23:13:37.299Z,84.17
2022-08-25T23:16:23.073Z,84.21
2022-08-25T23:21:58.703Z,84.09
2022-08-25T23:27:34.105Z,84.62
2022-08-25T23:33:20.423Z,85.11
2022-08-25T23:36:05.371Z,84.97
2022-08-25T23:41:40.924Z,85.18
2022-08-25T23:47:16.203Z,85.21
2022-08-25T23:52:51.613Z,85.39
2022-08-25T23:55:36.676Z,85.36
